Arlington, TX (76018)

12:35 PM CST on December 19, 2014 (GMT -0600)
Arlington Municipal | Change Station
CLOSE
Current Station
Airport
Location: Arlington,
Elevation: 630 ft
Nearby Weather Stations

Elev 630 ft 32.66 °N, 97.10 °W | Updated 42 minutes ago

Overcast
Overcast
48 °F
Feels Like 48 °F
N
12
Wind Variable Wind from North

Today
High -- | Low -- °F
--% Chance of Precip.
Yesterday
High -- | Low -- °F
Precip. -- in
7:25 AM 5:25 PM
Waning Crescent, 7% visible
Pressure 30.18 in
Visibility 9.0 miles
Clouds Overcast 600 ft
Dew Point 44 °F
Humidity 86%
Rainfall 0.06 in
Snow Depth Not available.
UV 1 out of 12
Pollen 8.00 out of 12
Air Quality Not available.
Flu Activity Not available.
METAR KGKY 191753Z 36010KT 9SM OVC006 09/07 A3018 RMK AO2 SLP219 60006 T00890067 10089 20083 58002

More Conditions Fewer Conditions

Pressure 30.18 in
Visibility 9.0 miles
Clouds Overcast 600 ft
Dew Point 44 °F
Humidity 86%
Rainfall 0.06 in
Snow Depth Not available.
UV 1 out of 12
Pollen 8.00 out of 12
Air Quality Not available.
Flu Activity Not available.
METAR KGKY 191753Z 36010KT 9SM OVC006 09/07 A3018 RMK AO2 SLP219 60006 T00890067 10089 20083 58002

More Conditions Fewer Conditions

Nowcast | as of 12:26 PM CST on December 19, 2014

Areas of drizzle and patchy fog along with mostly cloudy skies will continue through the mid afternoon hours. Temperatures through the afternoon hours will slowly climb into the mid to upper 40s with a few low 50s possible across central Texas.

×

10-Day Weather Forecast

Almanac

Astronomy

Dec. 19, 2014 Rise Set
Actual Time
Civil Twilight
Nautical Twilight
Astronomical Twilight
Moon
Length of Visible Light
Length of Day
Tomorrow will be .
, % of the Moon is Illuminated

Today's Extremes

State Highs State Lows

Community

WunderPhotos

Upload Photos

1,779,020 photos uploaded!

WunderBlogs® & News

Nearby

Air Quality

  Air Quality AQ Index Pollutant
Not available.

Snow Depth

Station Depth Elevation

Earthquake Activity

City Distance Mag. Time & Date
Minimum magnitude displayed is 2.5.

Coastal Water Temperatures

Place Temperature

Nearby Weather Stations